createdAt,value
2023-01-30T00:01:38.565Z,100359.84
2023-01-30T00:04:09.119Z,100359.88
2023-01-30T00:06:41.137Z,100360.90
2023-01-30T00:09:13.108Z,100362.91
2023-01-30T00:11:42.725Z,100364.71
2023-01-30T00:14:11.566Z,100363.93
2023-01-30T00:16:43.092Z,100363.85
2023-01-30T00:19:13.284Z,100361.41
2023-01-30T00:21:42.611Z,100361.41
2023-01-30T00:24:14.113Z,100361.55
2023-01-30T00:26:43.297Z,100357.84
2023-01-30T00:29:12.036Z,100352.11
2023-01-30T00:31:40.661Z,100351.98
2023-01-30T00:34:09.919Z,100346.71
2023-01-30T00:36:38.912Z,100345.45
2023-01-30T00:39:07.827Z,100344.11
2023-01-30T00:41:56.562Z,100341.98
2023-01-30T00:44:44.595Z,100346.83
2023-01-30T00:47:13.365Z,100349.09
2023-01-30T00:49:42.608Z,100343.98
2023-01-30T00:52:11.541Z,100347.05
2023-01-30T00:54:41.763Z,100348.48
2023-01-30T00:57:10.364Z,100353.38
2023-01-30T00:59:38.961Z,100350.42
2023-01-30T01:02:07.505Z,100347.85
2023-01-30T01:04:43.716Z,100343.27
2023-01-30T01:07:14.243Z,100338.65
2023-01-30T01:09:43.251Z,100333.83
2023-01-30T01:12:13.350Z,100328.62
2023-01-30T01:14:42.252Z,100326.27
2023-01-30T01:17:11.858Z,100328.73
2023-01-30T01:19:40.822Z,100327.94
2023-01-30T01:22:09.983Z,100325.21
2023-01-30T01:24:38.835Z,100323.05
2023-01-30T01:27:08.002Z,100324.23
2023-01-30T01:29:36.768Z,100318.04
2023-01-30T01:32:05.744Z,100314.94
2023-01-30T01:34:34.607Z,100315.71
2023-01-30T01:37:03.332Z,100316.41
2023-01-30T01:39:50.853Z,100315.02
2023-01-30T01:42:19.890Z,100312.30
2023-01-30T01:45:15.389Z,100309.27
2023-01-30T01:47:49.004Z,100310.05
2023-01-30T01:50:23.344Z,100307.72
2023-01-30T01:52:53.211Z,100306.09
2023-01-30T01:55:23.407Z,100305.70
2023-01-30T01:58:04.610Z,100300.80
2023-01-30T02:00:33.420Z,100297.48
2023-01-30T02:03:06.089Z,100295.41
2023-01-30T02:05:36.346Z,100294.79
2023-01-30T02:08:14.188Z,100293.61
2023-01-30T02:10:57.154Z,100295.39
2023-01-30T02:13:26.231Z,100286.08
2023-01-30T02:15:57.892Z,100279.47
2023-01-30T02:18:27.321Z,100274.25
2023-01-30T02:20:56.318Z,100274.65
2023-01-30T02:23:40.627Z,100273.46
2023-01-30T02:26:29.198Z,100273.48
2023-01-30T02:29:35.745Z,100274.29
2023-01-30T02:32:51.085Z,100271.10
2023-01-30T02:35:29.059Z,100272.80
2023-01-30T02:38:12.019Z,100266.17
2023-01-30T02:41:13.192Z,100265.70
2023-01-30T02:43:48.407Z,100267.23
2023-01-30T02:46:23.107Z,100264.75
2023-01-30T02:49:25.682Z,100265.00
2023-01-30T02:51:54.915Z,100271.35
2023-01-30T02:54:23.809Z,100262.44
2023-01-30T02:56:54.572Z,100262.02
2023-01-30T02:59:35.599Z,100260.80
2023-01-30T03:02:34.086Z,100265.42
2023-01-30T03:05:21.558Z,100264.16
2023-01-30T03:08:18.461Z,100264.29
2023-01-30T03:10:59.956Z,100264.91
2023-01-30T03:13:46.997Z,100258.67
2023-01-30T03:16:20.544Z,100261.02
2023-01-30T03:18:49.511Z,100256.13
2023-01-30T03:21:18.500Z,100250.65
2023-01-30T03:23:47.576Z,100249.46
2023-01-30T03:26:19.075Z,100252.17
2023-01-30T03:28:49.268Z,100253.20
2023-01-30T03:31:18.413Z,100247.48
2023-01-30T03:33:47.703Z,100244.58
2023-01-30T03:36:16.607Z,100248.23
2023-01-30T03:38:47.169Z,100245.09
2023-01-30T03:41:16.276Z,100242.47
2023-01-30T03:43:45.198Z,100249.05
2023-01-30T03:46:13.989Z,100251.21
2023-01-30T03:48:42.793Z,100243.06
2023-01-30T03:51:13.507Z,100247.20
2023-01-30T03:53:42.223Z,100251.77
2023-01-30T03:56:11.602Z,100255.73
2023-01-30T03:58:41.621Z,100255.73
2023-01-30T08:30:14.639Z,100168.42
2023-01-30T08:32:43.458Z,100168.97
2023-01-30T08:35:12.433Z,100171.66
2023-01-30T08:37:42.312Z,100170.33
2023-01-30T08:40:11.186Z,100169.94
2023-01-30T08:42:39.698Z,100164.54
2023-01-30T08:45:08.751Z,100162.64
2023-01-30T08:47:37.183Z,100169.00
2023-01-30T08:50:08.913Z,100165.06
2023-01-30T08:52:37.828Z,100170.20
2023-01-30T08:55:06.818Z,100171.22
2023-01-30T08:57:35.780Z,100175.45
2023-01-30T09:00:05.124Z,100173.90
2023-01-30T09:02:34.024Z,100173.23
2023-01-30T09:05:02.997Z,100172.16
2023-01-30T09:07:31.837Z,100173.73
2023-01-30T09:10:00.707Z,100172.83
2023-01-30T09:12:29.569Z,100178.55
2023-01-30T09:15:00.738Z,100185.19
2023-01-30T09:17:29.541Z,100183.70
2023-01-30T09:19:58.278Z,100184.98
2023-01-30T09:22:27.460Z,100187.90
2023-01-30T09:24:56.199Z,100194.70
2023-01-30T09:27:24.994Z,100193.27
2023-01-30T09:29:53.853Z,100186.58
2023-01-30T09:32:24.705Z,100170.34
2023-01-30T09:34:53.732Z,100156.04
2023-01-30T09:37:22.464Z,100136.47
2023-01-30T09:39:51.164Z,100110.20
2023-01-30T09:42:31.405Z,100120.86
2023-01-30T09:45:19.156Z,100126.58
2023-01-30T09:47:55.539Z,100126.67
2023-01-30T09:50:45.496Z,100133.55
2023-01-30T09:53:31.129Z,100137.08
2023-01-30T09:56:25.027Z,100143.27
2023-01-30T09:59:01.989Z,100144.14
2023-01-30T10:01:49.124Z,100143.46
2023-01-30T10:04:39.117Z,100142.66
2023-01-30T10:07:34.551Z,100146.40
2023-01-30T10:10:18.850Z,100147.25
2023-01-30T10:12:57.953Z,100145.35
2023-01-30T10:15:36.071Z,100143.75
2023-01-30T10:18:12.550Z,100137.96
2023-01-30T10:21:16.494Z,100132.64
2023-01-30T10:23:45.123Z,100136.52
2023-01-30T10:26:15.856Z,100136.62
2023-01-30T10:29:06.191Z,100144.33
2023-01-30T10:31:45.644Z,100146.40
2023-01-30T10:34:25.694Z,100148.88
2023-01-30T10:37:00.691Z,100145.52
2023-01-30T10:40:00.986Z,100144.18
2023-01-30T10:42:51.885Z,100147.52
2023-01-30T10:45:24.647Z,100148.70
2023-01-30T10:48:00.378Z,100154.59
2023-01-30T10:50:35.495Z,100159.27
2023-01-30T10:53:31.158Z,100157.70
2023-01-30T10:56:06.758Z,100158.83
2023-01-30T10:59:05.066Z,100161.96
2023-01-30T11:01:41.212Z,100163.80
2023-01-30T11:04:35.093Z,100155.39
2023-01-30T11:07:04.475Z,100154.94
2023-01-30T11:09:44.887Z,100149.03
2023-01-30T11:12:13.583Z,100143.89
2023-01-30T11:14:56.890Z,100143.34
2023-01-30T11:17:33.840Z,100145.39
2023-01-30T11:20:14.447Z,100138.02
2023-01-30T11:22:47.983Z,100132.58
2023-01-30T11:25:20.908Z,100122.71
2023-01-30T11:28:17.781Z,100116.14
2023-01-30T11:31:04.558Z,100097.01
2023-01-30T11:33:35.887Z,100084.08
2023-01-30T11:36:06.111Z,100071.58
2023-01-30T11:38:40.913Z,100062.90
2023-01-30T11:41:20.929Z,100069.86
2023-01-30T11:43:49.567Z,100064.27
2023-01-30T11:46:19.277Z,100066.53
2023-01-30T11:49:14.486Z,100066.69
2023-01-30T11:51:46.936Z,100065.16
2023-01-30T11:54:21.122Z,100074.30
2023-01-30T11:56:53.365Z,100069.30
2023-01-30T11:59:30.796Z,100066.27
2023-01-30T12:02:21.565Z,100065.45
2023-01-30T12:05:08.553Z,100059.27
2023-01-30T12:07:42.188Z,100051.02
2023-01-30T12:10:24.578Z,100047.24
2023-01-30T12:12:54.358Z,100038.38
2023-01-30T12:15:26.820Z,100035.04
2023-01-30T12:18:16.716Z,100031.85
2023-01-30T12:20:47.141Z,100024.52
2023-01-30T12:23:37.301Z,100021.09
2023-01-30T12:26:11.942Z,100011.74
2023-01-30T12:29:21.693Z,100010.92
2023-01-30T12:31:56.280Z,99996.88
2023-01-30T12:34:27.215Z,99990.70
2023-01-30T12:37:02.141Z,99994.33
2023-01-30T12:39:39.058Z,99994.56
2023-01-30T12:42:26.031Z,99996.73
2023-01-30T12:45:24.056Z,99989.86
2023-01-30T12:48:09.121Z,99982.26
2023-01-30T12:50:45.695Z,99985.77
2023-01-30T12:53:57.212Z,99976.81
2023-01-30T12:56:49.107Z,99975.73
2023-01-30T12:59:36.242Z,99973.88
2023-01-30T13:02:29.544Z,99969.02
2023-01-30T13:05:16.229Z,99964.06
2023-01-30T13:07:59.461Z,99958.19
2023-01-30T13:10:37.075Z,99959.10
2023-01-30T13:13:33.304Z,99956.34
2023-01-30T13:16:05.112Z,99945.92
2023-01-30T13:18:43.355Z,99943.20
2023-01-30T13:21:21.455Z,99937.18
2023-01-30T13:24:14.543Z,99931.60
2023-01-30T13:26:43.411Z,99928.36
2023-01-30T13:29:18.089Z,99927.08
2023-01-30T13:31:52.702Z,99920.95
2023-01-30T13:34:32.301Z,99919.96
2023-01-30T13:37:27.975Z,99922.30
2023-01-30T13:40:01.299Z,99928.62
2023-01-30T13:42:36.878Z,99928.47
2023-01-30T13:45:05.923Z,99933.44
2023-01-30T13:48:02.221Z,99931.55
2023-01-30T13:50:43.553Z,99924.67
2023-01-30T21:13:55.863Z,99568.64
2023-01-30T21:16:26.594Z,99566.90
2023-01-30T21:19:01.406Z,99566.52
2023-01-30T21:21:41.360Z,99566.08
2023-01-30T21:24:12.871Z,99564.40
2023-01-30T21:26:46.437Z,99564.27
2023-01-30T21:29:16.844Z,99566.65
2023-01-30T21:31:46.502Z,99569.67
2023-01-30T21:34:15.348Z,99563.21
2023-01-30T21:36:44.107Z,99566.59
2023-01-30T21:39:32.069Z,99564.92
2023-01-30T21:42:21.282Z,99567.51
2023-01-30T21:44:50.053Z,99564.00
2023-01-30T21:47:18.808Z,99564.41
2023-01-30T21:49:47.472Z,99563.98
2023-01-30T21:52:16.196Z,99560.73
2023-01-30T21:54:44.945Z,99557.81
2023-01-30T21:57:14.489Z,99554.44
2023-01-30T21:59:43.174Z,99546.26
2023-01-30T22:02:12.245Z,99546.55
2023-01-30T22:04:41.119Z,99548.30
2023-01-30T22:07:09.839Z,99541.42
2023-01-30T22:09:38.960Z,99540.83
2023-01-30T22:12:07.934Z,99538.51
2023-01-30T22:14:37.514Z,99538.78
2023-01-30T22:17:06.463Z,99536.58
2023-01-30T22:19:38.410Z,99537.27
2023-01-30T22:22:07.726Z,99534.80
2023-01-30T22:24:38.917Z,99529.35
2023-01-30T22:27:07.702Z,99530.83
2023-01-30T22:29:36.506Z,99530.29
2023-01-30T22:32:05.232Z,99528.02
2023-01-30T22:34:35.917Z,99533.60
2023-01-30T22:37:05.009Z,99525.23
2023-01-30T22:39:35.907Z,99525.00
2023-01-30T22:42:04.830Z,99524.48
2023-01-30T22:44:34.664Z,99526.75
2023-01-30T22:47:03.544Z,99526.81
2023-01-30T22:49:34.474Z,99523.13
2023-01-30T22:52:03.761Z,99522.96
2023-01-30T22:54:32.630Z,99523.49
2023-01-30T22:57:01.229Z,99525.74
2023-01-30T22:59:30.046Z,99521.73
2023-01-30T23:01:59.038Z,99524.82
2023-01-30T23:04:28.003Z,99523.59
2023-01-30T23:06:57.118Z,99535.52
2023-01-30T23:09:25.726Z,99535.30
2023-01-30T23:12:14.711Z,99533.20
2023-01-30T23:14:43.496Z,99526.60
2023-01-30T23:17:32.055Z,99519.70
2023-01-30T23:20:00.690Z,99519.98
2023-01-30T23:22:29.511Z,99516.78
2023-01-30T23:24:58.107Z,99517.18
2023-01-30T23:27:27.149Z,99515.83
2023-01-30T23:29:55.968Z,99515.92
2023-01-30T23:32:24.954Z,99518.60
2023-01-30T23:34:53.803Z,99521.63
2023-01-30T23:37:42.442Z,99519.10
2023-01-30T23:40:12.851Z,99516.98
2023-01-30T23:42:41.585Z,99513.86
2023-01-30T23:45:10.822Z,99508.84
2023-01-30T23:47:40.353Z,99514.27
2023-01-30T23:50:10.344Z,99519.81
2023-01-30T23:52:39.092Z,99519.02
2023-01-30T23:55:09.764Z,99512.29
2023-01-30T23:57:38.612Z,99507.88
